Time;durP1;ratioP1;P1;durP2;ratioP2;P2;SDS_P1;SDS_P2;PMS_P1;PMS_P2;Temp;Humidity;BMP_temperature;BMP_pressure;BME280_temperature;BME280_humidity;BME280_pressure;Samples;Min_cycle;Max_cycle;Signal;HPM_P1;HPM_P2
2022/09/01 00:00:13;;;;;;;12.68;9.60;;;;;;;23.44;59.65;100892.31;5095053;27;2068867;-59
2022/09/01 00:02:41;;;;;;;11.45;9.55;;;;;;;23.38;59.88;100895.22;5148439;27;20404;-59
2022/09/01 00:05:07;;;;;;;10.73;9.07;;;;;;;23.38;59.90;100892.50;5148655;27;20370;-59
2022/09/01 00:07:34;;;;;;;13.17;9.33;;;;;;;23.36;59.96;100889.25;5148398;27;20433;-59
2022/09/01 00:10:19;;;;;;;10.82;9.25;;;;;;;23.34;59.70;100888.69;5066103;28;20408;-59
2022/09/01 00:12:44;;;;;;;11.85;9.50;;;;;;;23.31;59.95;100879.16;5067258;28;20450;-59
2022/09/01 00:15:12;;;;;;;10.27;9.27;;;;;;;23.35;59.82;100879.47;5067082;28;20395;-59
2022/09/01 00:17:37;;;;;;;10.77;9.68;;;;;;;23.33;60.04;100877.00;5066733;28;20760;-59
2022/09/01 00:20:04;;;;;;;12.40;9.73;;;;;;;23.36;59.91;100875.72;5066764;28;20908;-59
2022/09/01 00:22:32;;;;;;;10.60;9.55;;;;;;;23.31;60.25;100871.03;5067178;28;20391;-59
2022/09/01 00:24:58;;;;;;;10.85;9.07;;;;;;;23.29;60.24;100867.78;5066788;28;20866;-59
2022/09/01 00:27:23;;;;;;;10.60;9.57;;;;;;;23.32;60.18;100879.97;5066569;28;20399;-59
2022/09/01 00:29:49;;;;;;;15.52;10.43;;;;;;;23.29;60.15;100879.41;5066805;28;20514;-59
2022/09/01 00:32:14;;;;;;;12.23;10.97;;;;;;;23.25;60.47;100878.28;5066730;28;20434;-59
2022/09/01 00:34:41;;;;;;;12.38;11.07;;;;;;;23.26;60.43;100876.38;5066753;28;20387;-59
2022/09/01 00:37:06;;;;;;;14.35;10.95;;;;;;;23.24;60.56;100878.53;5066708;28;20384;-59
2022/09/01 00:39:32;;;;;;;16.67;12.20;;;;;;;23.21;60.61;100874.44;5066288;28;20462;-59
2022/09/01 00:41:58;;;;;;;13.55;11.90;;;;;;;23.20;60.87;100877.41;5066247;28;20398;-60
2022/09/01 00:44:26;;;;;;;13.07;11.77;;;;;;;23.20;60.75;100874.69;5065467;28;20387;-59
2022/09/01 00:46:54;;;;;;;15.93;12.00;;;;;;;23.18;60.69;100869.53;5066393;28;20727;-59
2022/09/01 00:49:30;;;;;;;15.43;12.07;;;;;;;23.14;60.96;100871.09;5066282;28;20492;-59
2022/09/01 00:52:13;;;;;;;12.90;11.70;;;;;;;23.14;61.02;100870.28;5066332;28;20430;-59
2022/09/01 00:54:46;;;;;;;12.57;11.43;;;;;;;23.16;61.01;100868.97;5066373;28;20461;-59
2022/09/01 00:57:14;;;;;;;12.77;11.48;;;;;;;23.15;61.09;100866.50;5066297;28;20885;-59
2022/09/01 01:00:39;;;;;;;14.05;11.68;;;;;;;23.13;60.98;100876.75;5086273;28;20819;-58
2022/09/01 01:03:12;;;;;;;13.70;11.27;;;;;;;23.08;60.93;100878.34;5087325;28;20749;-59
2022/09/01 01:05:41;;;;;;;11.77;10.57;;;;;;;23.07;60.89;100870.47;5087521;28;20389;-58
2022/09/01 01:08:59;;;;;;;11.65;10.45;;;;;;;23.05;60.39;100867.19;5106741;27;20404;-58
2022/09/01 01:11:30;;;;;;;11.43;10.32;;;;;;;23.08;60.64;100880.19;5107531;28;20461;-59
2022/09/01 01:14:11;;;;;;;11.30;10.20;;;;;;;23.04;60.75;100877.19;5107579;28;20889;-58
2022/09/01 01:16:43;;;;;;;12.10;10.90;;;;;;;23.03;60.91;100878.22;5107493;28;20379;-58
2022/09/01 01:25:23;;;;;;;14.33;12.83;;;;;;;23.01;61.27;100872.25;5107416;28;20483;-59
2022/09/01 01:27:49;;;;;;;15.75;12.75;;;;;;;22.97;61.20;100873.81;5107351;28;20495;-59
2022/09/01 01:30:17;;;;;;;14.32;12.82;;;;;;;22.93;61.10;100875.38;5107094;28;20409;-59
2022/09/01 01:32:44;;;;;;;13.55;12.25;;;;;;;22.88;61.10;100872.59;5107327;28;20384;-60
2022/09/01 01:37:05;;;;;;;13.60;11.93;;;;;;;22.79;61.64;100869.47;5086408;27;20402;-59
2022/09/01 01:39:31;;;;;;;13.43;11.77;;;;;;;22.75;61.51;100876.47;5087193;28;20455;-59
2022/09/01 01:41:57;;;;;;;13.10;11.80;;;;;;;22.78;61.54;100878.69;5087349;28;20386;-59
2022/09/01 01:44:27;;;;;;;13.80;12.25;;;;;;;22.70;61.74;100882.59;5087310;28;20983;-58
2022/09/01 01:46:54;;;;;;;13.43;11.88;;;;;;;22.69;61.42;100880.97;5086986;28;20374;-58
2022/09/01 01:49:23;;;;;;;12.85;11.40;;;;;;;22.73;61.29;100878.59;5087246;28;20484;-58
2022/09/01 01:51:55;;;;;;;13.02;10.88;;;;;;;22.78;61.13;100888.66;5087470;28;20468;-59
2022/09/01 01:54:21;;;;;;;12.65;11.25;;;;;;;22.80;60.81;100900.06;5087037;28;20474;-58
2022/09/01 01:56:47;;;;;;;12.07;10.80;;;;;;;22.77;60.77;100898.66;5086652;28;20781;-59
2022/09/01 01:59:13;;;;;;;12.82;10.50;;;;;;;22.68;61.10;100884.72;5086885;28;20926;-58
2022/09/01 02:01:41;;;;;;;11.50;10.30;;;;;;;22.70;60.73;100892.59;5086515;28;20406;-58
2022/09/01 02:04:09;;;;;;;11.47;10.27;;;;;;;22.74;60.57;100903.72;5086795;28;20923;-58
2022/09/01 02:06:40;;;;;;;10.73;9.73;;;;;;;22.71;60.43;100902.34;5086816;28;20436;-58
2022/09/01 02:09:06;;;;;;;12.95;9.88;;;;;;;22.69;60.31;100904.47;5086726;28;20382;-58
2022/09/01 02:11:36;;;;;;;12.65;9.80;;;;;;;22.69;60.35;100902.59;5086484;28;20781;-58
2022/09/01 02:14:04;;;;;;;10.75;9.65;;;;;;;22.66;60.06;100902.25;5086543;28;20385;-60
2022/09/01 02:18:46;;;;;;;10.48;9.20;;;;;;;22.57;60.22;100895.63;5085750;27;20811;-60
2022/09/01 02:21:18;;;;;;;10.38;9.27;;;;;;;22.53;60.20;100889.91;5087310;28;20408;-60
2022/09/01 02:23:46;;;;;;;11.60;8.95;;;;;;;22.49;60.22;100892.28;5087166;28;20382;-59
2022/09/01 02:26:12;;;;;;;10.13;9.20;;;;;;;22.48;60.34;100892.53;5087139;28;20937;-60
2022/09/01 02:28:41;;;;;;;9.90;8.90;;;;;;;22.49;60.27;100888.72;5086823;28;20378;-59
2022/09/01 02:31:09;;;;;;;9.48;8.57;;;;;;;22.43;60.48;100884.31;5086979;28;20887;-59
2022/09/01 02:33:37;;;;;;;9.98;8.98;;;;;;;22.42;60.50;100890.78;5086983;28;20386;-59
2022/09/01 02:36:07;;;;;;;11.10;9.00;;;;;;;22.39;60.60;100889.41;5087355;28;20378;-59
2022/09/01 02:38:33;;;;;;;11.47;9.60;;;;;;;22.44;60.45;100899.47;5086769;28;20904;-59
2022/09/01 02:41:02;;;;;;;11.02;9.20;;;;;;;22.40;60.22;100887.50;5086856;28;20432;-60
2022/09/01 02:43:30;;;;;;;11.02;9.73;;;;;;;22.40;60.49;100895.59;5087165;28;20393;-59
2022/09/01 02:47:59;;;;;;;11.07;9.52;;;;;;;22.34;60.76;100886.59;5047316;28;20467;-59
2022/09/01 02:50:25;;;;;;;12.87;9.50;;;;;;;22.37;60.80;100882.63;5047199;28;20394;-59
2022/09/01 02:52:51;;;;;;;12.70;9.80;;;;;;;22.36;60.70;100883.66;5046914;28;20847;-58
2022/09/01 02:55:20;;;;;;;12.77;11.20;;;;;;;22.38;60.89;100890.44;5047251;28;20891;-60
2022/09/01 02:57:48;;;;;;;13.30;9.98;;;;;;;22.27;60.95;100886.78;5046578;28;20409;-59
2022/09/01 03:01:32;;;;;;;12.00;10.68;;;;;;;22.28;61.10;100901.09;5086251;27;20981;-59
2022/09/01 03:04:01;;;;;;;12.30;11.00;;;;;;;22.26;61.23;100897.78;5087306;28;20387;-59
2022/09/01 03:06:30;;;;;;;12.48;11.13;;;;;;;22.28;61.08;100906.50;5087236;28;20389;-59
2022/09/01 03:09:00;;;;;;;12.37;11.10;;;;;;;22.24;61.44;100908.03;5087237;28;20386;-59
2022/09/01 03:11:29;;;;;;;13.65;11.38;;;;;;;22.22;61.67;100900.16;5086893;28;20386;-59
2022/09/01 03:13:55;;;;;;;12.75;11.35;;;;;;;22.29;61.46;100900.00;5087440;28;20388;-59
2022/09/01 03:16:24;;;;;;;14.68;11.27;;;;;;;22.32;61.43;100905.75;5086877;28;20381;-59
2022/09/01 03:18:51;;;;;;;12.50;11.20;;;;;;;22.35;61.20;100895.56;5087040;28;20383;-59
2022/09/01 03:21:42;;;;;;;14.65;11.68;;;;;;;22.33;61.44;100885.00;5066176;28;20408;-59
2022/09/01 03:24:11;;;;;;;13.98;11.90;;;;;;;22.33;61.29;100885.00;5067092;28;20469;-59
2022/09/01 03:26:37;;;;;;;13.45;11.48;;;;;;;22.36;61.41;100891.78;5067074;28;20376;-59
2022/09/01 03:29:03;;;;;;;15.33;12.37;;;;;;;22.31;61.46;100885.22;5067052;28;20369;-59
2022/09/01 03:33:41;;;;;;;18.30;14.05;;;;;;;22.21;62.11;100886.91;5092597;27;2135469;-60
2022/09/01 03:36:55;;;;;;;16.10;13.05;;;;;;;22.18;62.42;100887.38;5065574;28;20411;-59
2022/09/01 03:39:20;;;;;;;15.52;12.68;;;;;;;22.06;62.53;100888.25;5066883;28;20403;-59
2022/09/01 03:41:46;;;;;;;17.30;13.57;;;;;;;22.07;62.92;100875.56;5067180;28;21628;-58
2022/09/01 03:44:15;;;;;;;14.77;12.75;;;;;;;22.10;63.00;100881.31;5067375;28;20473;-58
2022/09/01 03:46:42;;;;;;;15.47;13.30;;;;;;;22.22;62.64;100888.53;5067022;28;20383;-59
2022/09/01 03:49:14;;;;;;;19.23;14.15;;;;;;;22.25;62.45;100886.16;5066873;28;20441;-58
2022/09/01 03:51:41;;;;;;;19.25;14.13;;;;;;;22.33;62.56;100893.91;5066851;28;20420;-58
2022/09/01 03:54:07;;;;;;;16.20;13.45;;;;;;;22.39;62.35;100905.59;5066764;28;20383;-58
2022/09/01 03:56:33;;;;;;;17.25;13.95;;;;;;;22.39;62.68;100894.00;5066489;28;20418;-58
2022/09/01 03:58:59;;;;;;;17.67;13.53;;;;;;;22.42;62.48;100894.31;5066699;28;20391;-59
2022/09/01 04:01:27;;;;;;;20.50;14.23;;;;;;;22.45;62.62;100904.63;5055002;28;20416;-59
2022/09/01 04:03:52;;;;;;;15.95;13.27;;;;;;;22.50;62.29;100899.28;5046690;28;20443;-58
2022/09/01 04:06:22;;;;;;;16.55;14.00;;;;;;;22.57;62.07;100904.56;5046193;28;20389;-59
2022/09/01 04:08:52;;;;;;;17.70;13.02;;;;;;;22.60;61.98;100892.41;5046176;28;20396;-59
2022/09/01 04:11:22;;;;;;;15.32;12.27;;;;;;;22.61;61.74;100892.19;5045152;28;20389;-59
2022/09/01 04:13:49;;;;;;;13.60;12.23;;;;;;;22.65;61.40;100901.47;5046457;28;20791;-59
2022/09/01 04:19:19;;;;;;;14.07;12.60;;;;;;;22.74;61.43;100899.13;5046318;28;20767;-59
2022/09/01 04:21:49;;;;;;;17.95;14.68;;;;;;;22.77;61.22;100898.66;5046383;28;20447;-59
2022/09/01 04:24:15;;;;;;;21.05;13.35;;;;;;;22.77;61.42;100900.53;5046089;28;20432;-59
2022/09/01 04:26:41;;;;;;;20.13;13.52;;;;;;;22.71;61.53;100903.16;5046456;28;20381;-59
2022/09/01 04:29:08;;;;;;;17.38;13.63;;;;;;;22.68;61.53;100900.13;5046305;28;20388;-59
2022/09/01 04:31:37;;;;;;;20.75;13.77;;;;;;;22.77;61.33;100909.47;5045819;28;20431;-59
2022/09/01 04:34:09;;;;;;;17.60;13.85;;;;;;;22.83;61.18;100908.50;5046100;28;20436;-60
2022/09/01 04:36:36;;;;;;;20.75;13.18;;;;;;;22.80;61.27;100911.69;5046061;28;20441;-58
2022/09/01 04:39:07;;;;;;;20.30;14.05;;;;;;;22.79;61.04;100898.41;5045677;28;20815;-59
2022/09/01 04:41:36;;;;;;;18.40;14.80;;;;;;;22.85;61.15;100900.94;5045638;28;20410;-58
2022/09/01 04:44:03;;;;;;;19.83;15.60;;;;;;;23.00;60.79;100915.75;5046211;28;20475;-59
2022/09/01 04:46:31;;;;;;;20.30;15.15;;;;;;;23.04;60.71;100916.88;5042210;28;20382;-59
2022/09/01 04:48:58;;;;;;;17.20;14.30;;;;;;;23.28;59.87;100914.81;5032511;28;20881;-59
2022/09/01 04:51:26;;;;;;;20.50;14.43;;;;;;;23.35;59.94;100918.16;5032863;28;20979;-59
2022/09/01 04:53:54;;;;;;;16.38;14.60;;;;;;;23.26;60.12;100922.38;5032224;28;20447;-59
2022/09/01 04:56:21;;;;;;;24.03;16.00;;;;;;;23.20;60.46;100912.56;5032490;28;20414;-59
2022/09/01 04:58:49;;;;;;;16.65;14.43;;;;;;;23.17;60.58;100918.44;5032093;28;20402;-59
2022/09/01 05:01:17;;;;;;;17.67;15.85;;;;;;;23.12;60.57;100907.56;5031438;28;20477;-59
2022/09/01 05:03:44;;;;;;;23.90;16.20;;;;;;;23.09;60.76;100922.41;5030782;28;20742;-59
2022/09/01 05:06:18;;;;;;;22.67;16.67;;;;;;;23.10;60.98;100910.50;5030361;28;20406;-58
2022/09/01 05:08:45;;;;;;;23.23;17.00;;;;;;;23.18;60.71;100918.22;5031597;28;20815;-60
2022/09/01 05:11:11;;;;;;;20.83;15.73;;;;;;;23.23;60.61;100907.47;5031234;28;20907;-59
2022/09/01 05:13:42;;;;;;;20.40;16.33;;;;;;;23.27;60.65;100915.91;5032211;28;20382;-59
2022/09/01 05:16:11;;;;;;;18.27;15.25;;;;;;;23.25;60.51;100921.56;5030950;28;20811;-59
2022/09/01 05:18:39;;;;;;;18.25;15.25;;;;;;;23.25;60.75;100912.63;5030327;28;20401;-60
2022/09/01 05:21:10;;;;;;;20.73;16.43;;;;;;;23.23;60.93;100914.78;5029942;28;20386;-60
2022/09/01 05:23:39;;;;;;;23.15;16.45;;;;;;;23.24;60.88;100911.78;5030223;28;20465;-59
2022/09/01 05:26:15;;;;;;;20.25;16.27;;;;;;;23.26;60.81;100920.50;5030123;28;20367;-60
2022/09/01 05:28:46;;;;;;;21.02;15.48;;;;;;;23.29;60.72;100917.28;5030870;28;20884;-59
2022/09/01 05:31:12;;;;;;;22.20;15.77;;;;;;;23.31;60.56;100911.63;5030879;28;20371;-59
2022/09/01 05:33:44;;;;;;;18.87;15.50;;;;;;;23.28;60.70;100912.94;5031083;28;20394;-59
2022/09/01 05:36:12;;;;;;;18.73;15.75;;;;;;;23.29;60.85;100922.69;5031672;28;20461;-59
2022/09/01 05:38:40;;;;;;;20.17;16.53;;;;;;;23.32;60.79;100917.84;5031657;28;20757;-59
2022/09/01 05:41:08;;;;;;;21.13;15.50;;;;;;;23.28;61.00;100914.81;5031970;28;20393;-59
2022/09/01 05:43:34;;;;;;;18.92;15.13;;;;;;;23.27;61.07;100911.28;5031260;28;20370;-60
2022/09/01 05:46:04;;;;;;;16.17;14.40;;;;;;;23.26;61.26;100906.13;5031614;28;20389;-59
2022/09/01 05:48:30;;;;;;;17.63;14.70;;;;;;;23.27;61.24;100908.59;5031105;28;20389;-59
2022/09/01 05:50:58;;;;;;;19.97;15.20;;;;;;;23.29;61.34;100911.06;5031471;28;20387;-59
2022/09/01 05:53:29;;;;;;;21.30;14.73;;;;;;;23.37;60.91;100909.78;5031778;28;20382;-59
2022/09/01 05:55:56;;;;;;;16.98;13.90;;;;;;;23.38;60.88;100909.53;5031215;28;20422;-58
2022/09/01 05:58:26;;;;;;;19.30;13.18;;;;;;;23.34;61.19;100918.44;5030475;28;20397;-58
2022/09/01 06:00:54;;;;;;;21.63;14.20;;;;;;;23.25;61.30;100916.13;5031246;28;20382;-58
2022/09/01 06:03:21;;;;;;;21.90;14.80;;;;;;;23.22;61.45;100897.69;5030907;28;20440;-58
2022/09/01 06:05:51;;;;;;;19.48;14.73;;;;;;;23.23;61.56;100893.94;5031159;28;20412;-58
2022/09/01 06:08:20;;;;;;;20.77;14.35;;;;;;;23.28;61.28;100904.00;5031175;28;20391;-59
2022/09/01 06:10:47;;;;;;;18.33;14.15;;;;;;;23.20;61.77;100902.53;5031073;28;20752;-59
2022/09/01 06:13:14;;;;;;;20.27;15.10;;;;;;;23.17;61.89;100902.22;5031102;28;20444;-61
2022/09/01 06:15:41;;;;;;;19.75;15.02;;;;;;;23.24;61.84;100906.38;5030752;28;20418;-59
2022/09/01 06:18:10;;;;;;;18.48;14.50;;;;;;;23.16;62.12;100904.13;5030926;28;20414;-59
2022/09/01 06:20:40;;;;;;;22.70;15.35;;;;;;;23.21;62.09;100909.59;5030951;28;20389;-59
2022/09/01 06:23:06;;;;;;;21.42;17.17;;;;;;;23.25;61.77;100910.72;5030934;28;20420;-59
2022/09/01 06:25:31;;;;;;;20.50;15.50;;;;;;;23.24;61.73;100911.78;5030865;28;20381;-59
2022/09/01 06:27:59;;;;;;;23.48;15.90;;;;;;;23.28;61.63;100909.41;5030707;28;20386;-59
2022/09/01 06:30:25;;;;;;;19.17;15.57;;;;;;;23.33;61.58;100909.47;5030795;28;20371;-58
2022/09/01 06:32:53;;;;;;;27.70;16.40;;;;;;;23.40;61.46;100901.19;5030265;28;20389;-60
2022/09/01 06:35:21;;;;;;;22.52;16.83;;;;;;;23.57;61.00;100918.19;5029588;28;20485;-60
2022/09/01 06:37:47;;;;;;;20.70;15.88;;;;;;;23.44;61.22;100916.69;5029481;28;20379;-59
2022/09/01 06:40:18;;;;;;;20.98;16.63;;;;;;;23.40;61.08;100912.81;5030229;28;20432;-59
2022/09/01 06:42:46;;;;;;;18.55;16.08;;;;;;;23.48;61.29;100917.00;5029953;28;20771;-58
2022/09/01 06:45:13;;;;;;;21.58;16.48;;;;;;;23.51;61.21;100927.28;5029734;28;20773;-59
2022/09/01 06:47:43;;;;;;;24.33;16.85;;;;;;;23.50;61.13;100928.38;5030224;28;20540;-59
2022/09/01 06:50:09;;;;;;;20.10;16.13;;;;;;;23.51;61.03;100931.91;5029844;28;20390;-59
2022/09/01 06:52:39;;;;;;;22.65;17.33;;;;;;;23.39;61.59;100932.84;5028653;28;20401;-59
2022/09/01 06:55:05;;;;;;;21.23;18.02;;;;;;;23.37;61.33;100928.72;5028951;28;20988;-59
2022/09/01 06:57:31;;;;;;;24.40;17.50;;;;;;;23.42;61.25;100931.50;5029391;28;20436;-61
2022/09/01 06:59:56;;;;;;;25.07;17.90;;;;;;;23.45;61.43;100933.72;5029368;28;20386;-58
2022/09/01 07:02:22;;;;;;;22.50;16.92;;;;;;;23.38;61.58;100928.47;5029794;28;20457;-58
2022/09/01 07:04:48;;;;;;;18.90;16.10;;;;;;;23.42;61.46;100928.81;5029138;28;20374;-60
2022/09/01 07:07:14;;;;;;;19.97;16.07;;;;;;;23.32;62.02;100940.31;5029630;28;20884;-60
2022/09/01 07:09:39;;;;;;;22.65;17.17;;;;;;;23.19;62.35;100937.94;5028022;28;20393;-59
2022/09/01 07:12:06;;;;;;;20.37;16.87;;;;;;;23.28;62.39;100931.88;5030017;28;20888;-59
2022/09/01 07:14:31;;;;;;;22.80;17.07;;;;;;;23.34;62.18;100949.00;5029735;28;20375;-59
2022/09/01 07:16:57;;;;;;;21.00;16.92;;;;;;;23.33;62.17;100947.34;5030028;28;20409;-60
2022/09/01 07:19:24;;;;;;;20.30;17.08;;;;;;;23.29;62.56;100957.84;5029521;28;20433;-59
2022/09/01 07:21:50;;;;;;;22.27;17.33;;;;;;;23.21;62.85;100952.88;5029139;28;20461;-59
2022/09/01 07:24:17;;;;;;;24.70;19.73;;;;;;;23.19;62.32;100954.19;5029414;28;20461;-59
2022/09/01 07:26:48;;;;;;;22.88;18.55;;;;;;;23.29;62.33;100957.03;5029682;28;20378;-59
2022/09/01 07:31:31;;;;;;;25.65;21.15;;;;;;;23.35;61.71;100956.03;5094104;27;2066801;-60
2022/09/01 07:33:59;;;;;;;26.98;20.77;;;;;;;23.36;61.96;100954.16;5148692;27;20450;-60
2022/09/01 07:36:26;;;;;;;27.83;20.88;;;;;;;23.33;61.97;100958.16;5148445;27;20380;-61
2022/09/01 07:38:55;;;;;;;26.33;20.67;;;;;;;23.48;61.71;100963.81;5148428;27;20389;-61
2022/09/01 07:41:24;;;;;;;25.52;21.45;;;;;;;23.34;61.64;100964.41;5148603;27;20392;-60
2022/09/01 07:43:52;;;;;;;25.67;21.27;;;;;;;23.37;62.09;100953.06;5148596;27;20851;-60
2022/09/01 07:46:19;;;;;;;25.70;21.20;;;;;;;23.51;61.69;100948.13;5148135;27;20369;-60
2022/09/01 07:48:47;;;;;;;27.23;20.65;;;;;;;23.61;61.46;100946.38;5148440;27;20369;-60
2022/09/01 07:51:17;;;;;;;26.45;20.55;;;;;;;23.61;61.19;100940.97;5147914;27;20833;-60
2022/09/01 07:53:44;;;;;;;25.50;20.40;;;;;;;23.59;61.05;100955.81;5148209;27;20373;-60
2022/09/01 07:56:10;;;;;;;27.42;21.30;;;;;;;23.50;61.27;100943.78;5148381;27;20408;-60
2022/09/01 07:58:38;;;;;;;26.58;21.33;;;;;;;23.39;61.68;100950.94;5148295;27;20874;-60
2022/09/01 08:01:08;;;;;;;27.02;20.42;;;;;;;23.43;61.83;100952.09;5147928;27;20828;-59
2022/09/01 08:03:34;;;;;;;26.38;20.35;;;;;;;23.54;61.22;100953.06;5147805;27;20882;-60
2022/09/01 08:06:09;;;;;;;25.90;19.98;;;;;;;23.51;61.53;100948.13;5148126;27;20384;-60
2022/09/01 08:08:36;;;;;;;24.83;20.63;;;;;;;23.56;61.64;100934.66;5129575;27;20960;-60
2022/09/01 08:11:03;;;;;;;27.88;21.65;;;;;;;23.64;61.63;100942.34;5148151;27;20401;-60
2022/09/01 08:13:29;;;;;;;24.48;19.70;;;;;;;23.79;61.12;100933.59;5148031;27;20369;-61
2022/09/01 08:15:55;;;;;;;24.38;19.65;;;;;;;23.95;60.59;100942.72;5147956;27;20377;-61
2022/09/01 08:18:21;;;;;;;23.43;20.00;;;;;;;23.82;60.61;100943.94;5147721;27;20437;-60
2022/09/01 08:20:47;;;;;;;25.55;20.48;;;;;;;23.85;60.38;100938.84;5148227;27;20403;-60
2022/09/01 08:23:16;;;;;;;24.55;19.92;;;;;;;23.91;60.05;100937.00;5147826;27;20405;-60
2022/09/01 08:25:43;;;;;;;23.45;19.70;;;;;;;24.01;60.04;100933.59;5147614;27;20855;-60
2022/09/01 08:28:08;;;;;;;25.05;20.17;;;;;;;24.10;59.84;100945.59;5129429;27;20377;-61
2022/09/01 08:30:37;;;;;;;25.80;21.53;;;;;;;24.07;59.65;100932.56;5147380;27;21016;-61
2022/09/01 08:33:02;;;;;;;26.20;21.30;;;;;;;24.00;59.52;100943.63;5147807;27;20913;-60
2022/09/01 08:35:28;;;;;;;29.63;21.35;;;;;;;23.99;59.66;100935.75;5147290;27;20413;-60
2022/09/01 08:37:55;;;;;;;28.63;21.03;;;;;;;24.10;59.68;100947.50;5147165;27;20898;-60
2022/09/01 08:41:40;;;;;;;27.33;21.77;;;;;;;24.12;59.72;100948.06;5065984;28;20408;-60
2022/09/01 08:44:38;;;;;;;33.83;23.17;;;;;;;24.14;59.49;100954.84;5046300;28;20419;-59
2022/09/01 08:47:07;;;;;;;29.40;21.55;;;;;;;24.21;59.34;100952.75;5047206;28;20387;-60
2022/09/01 08:49:35;;;;;;;29.90;22.73;;;;;;;24.23;59.18;100947.09;5067152;28;20383;-60
2022/09/01 08:52:26;;;;;;;31.90;23.33;;;;;;;24.31;59.20;100948.50;5066858;28;20403;-60
2022/09/01 08:55:04;;;;;;;30.90;23.40;;;;;;;24.32;59.08;100944.75;5067036;28;20407;-60
2022/09/01 08:57:42;;;;;;;29.75;23.42;;;;;;;24.43;58.79;100939.19;5066587;28;20871;-59
2022/09/01 09:00:12;;;;;;;31.23;23.27;;;;;;;24.59;58.70;100942.03;5066572;28;20420;-59
2022/09/01 09:03:12;;;;;;;30.88;23.88;;;;;;;24.81;58.00;100947.34;5066849;28;20384;-61
2022/09/01 09:06:08;;;;;;;30.60;23.92;;;;;;;25.15;56.42;100949.75;5066504;28;20434;-60
2022/09/01 09:08:52;;;;;;;27.63;23.10;;;;;;;25.54;55.57;100947.56;5066493;28;20437;-59
2022/09/01 09:11:37;;;;;;;26.95;22.67;;;;;;;25.76;54.87;100946.56;5066423;28;20376;-59
2022/09/01 09:14:17;;;;;;;30.02;23.23;;;;;;;25.75;54.77;100942.25;5066120;28;20403;-59
2022/09/01 09:16:48;;;;;;;27.43;23.13;;;;;;;25.71;55.04;100944.66;5066183;28;20395;-59
2022/09/01 09:19:28;;;;;;;27.48;22.05;;;;;;;25.73;54.84;100938.94;5066336;28;20412;-59
2022/09/01 09:21:55;;;;;;;28.60;22.55;;;;;;;25.75;54.86;100947.66;5066030;28;20376;-60
2022/09/01 09:24:46;;;;;;;29.05;22.27;;;;;;;25.95;54.41;100941.50;5066334;28;20411;-59
2022/09/01 09:27:28;;;;;;;27.70;21.90;;;;;;;26.21;53.19;100933.41;5064853;28;20743;-59
2022/09/01 09:30:05;;;;;;;27.33;21.45;;;;;;;26.36;52.40;100935.31;5057678;28;20405;-59
2022/09/01 09:32:45;;;;;;;26.27;20.95;;;;;;;26.44;52.31;100930.16;5035864;28;20798;-60
2022/09/01 09:35:35;;;;;;;27.47;20.87;;;;;;;26.69;51.86;100917.69;5061894;28;20386;-60
2022/09/01 09:38:17;;;;;;;29.63;21.98;;;;;;;26.93;51.18;100919.84;5027828;28;20439;-60
2022/09/01 09:41:00;;;;;;;23.80;20.70;;;;;;;27.14;50.92;100913.25;5026029;28;20431;-59
2022/09/01 09:43:28;;;;;;;26.27;20.55;;;;;;;27.39;50.10;100903.44;5025971;28;20893;-59
2022/09/01 09:46:32;;;;;;;24.40;19.83;;;;;;;27.20;50.26;100892.28;5026069;28;20384;-60
2022/09/01 09:49:15;;;;;;;21.35;18.33;;;;;;;27.07;50.13;100890.97;5037906;28;20898;-59
2022/09/01 09:51:57;;;;;;;23.98;19.00;;;;;;;27.20;49.97;100884.94;5037976;28;20390;-61
2022/09/01 09:54:27;;;;;;;18.80;16.05;;;;;;;27.39;49.32;100885.19;5032272;28;20759;-60
2022/09/01 09:57:07;;;;;;;20.52;17.10;;;;;;;27.53;49.58;100892.72;5032277;28;20374;-60
2022/09/01 09:59:42;;;;;;;18.38;15.68;;;;;;;27.41;49.06;100899.31;5032479;28;20924;-60
2022/09/01 10:02:35;;;;;;;16.67;13.50;;;;;;;27.11;49.30;100896.69;5031187;28;20829;-59
2022/09/01 10:05:35;;;;;;;15.00;12.98;;;;;;;26.99;50.09;100895.09;5032253;28;20934;-60
2022/09/01 10:08:02;;;;;;;16.23;13.70;;;;;;;27.01;49.60;100883.91;5032212;28;20387;-60
2022/09/01 10:10:47;;;;;;;17.13;12.68;;;;;;;27.05;49.63;100893.16;5032348;28;20370;-59
2022/09/01 10:13:24;;;;;;;15.40;12.30;;;;;;;27.13;49.24;100886.31;5032217;28;20422;-60
2022/09/01 10:15:53;;;;;;;16.10;11.63;;;;;;;27.23;49.27;100881.66;5032106;28;20397;-60
2022/09/01 10:18:28;;;;;;;13.17;11.80;;;;;;;27.17;49.07;100876.50;5031840;28;20873;-59
2022/09/01 10:20:56;;;;;;;14.50;11.47;;;;;;;27.27;48.72;100871.06;5032011;28;20421;-60
2022/09/01 10:23:23;;;;;;;14.27;10.45;;;;;;;27.45;48.48;100866.91;5032056;28;20886;-60
2022/09/01 10:25:52;;;;;;;15.60;11.83;;;;;;;27.50;48.62;100866.88;5031958;28;20370;-60
2022/09/01 10:28:22;;;;;;;12.02;10.77;;;;;;;27.56;48.69;100865.75;5028741;28;20401;-59
2022/09/01 10:30:51;;;;;;;15.82;11.10;;;;;;;27.61;48.41;100856.75;5027992;28;20885;-60
2022/09/01 10:33:19;;;;;;;12.88;10.43;;;;;;;27.54;48.54;100853.53;5042416;28;20448;-59
2022/09/01 10:35:49;;;;;;;13.55;10.25;;;;;;;27.62;48.62;100859.19;5020100;28;20379;-60
2022/09/01 10:38:21;;;;;;;11.57;8.93;;;;;;;27.75;47.53;100856.94;5042375;28;20392;-60
2022/09/01 10:41:05;;;;;;;10.70;8.63;;;;;;;27.86;47.19;100850.34;5011823;28;20526;-59
2022/09/01 10:43:47;;;;;;;10.70;8.10;;;;;;;27.78;47.23;100851.72;5021348;28;20382;-58
2022/09/01 10:46:19;;;;;;;10.32;8.50;;;;;;;27.82;46.91;100854.69;5031764;28;20899;-59
2022/09/01 10:48:49;;;;;;;13.90;8.35;;;;;;;27.87;47.49;100849.22;5031479;28;20911;-59
2022/09/01 10:51:14;;;;;;;10.50;8.75;;;;;;;28.01;46.83;100844.00;5031433;28;20386;-59
2022/09/01 10:53:59;;;;;;;12.73;8.50;;;;;;;27.93;46.64;100850.88;5031232;28;20417;-59
2022/09/01 10:56:48;;;;;;;10.32;7.70;;;;;;;28.00;46.63;100847.78;5031026;28;20384;-58
2022/09/01 10:59:25;;;;;;;9.38;7.93;;;;;;;27.90;46.54;100850.59;5033460;28;20982;-58
2022/09/01 11:01:51;;;;;;;11.02;8.75;;;;;;;27.84;47.10;100847.91;5031629;28;20397;-58
2022/09/01 11:04:42;;;;;;;11.52;8.57;;;;;;;27.82;47.25;100847.38;5047890;28;20384;-58
2022/09/01 11:07:17;;;;;;;14.10;8.70;;;;;;;27.76;47.48;100850.41;5041008;28;20403;-58
2022/09/01 11:09:47;;;;;;;11.10;8.32;;;;;;;27.79;47.23;100845.19;5034517;28;20884;-58
2022/09/01 11:12:38;;;;;;;12.77;8.45;;;;;;;27.90;46.97;100829.63;5034593;28;20405;-58
2022/09/01 11:15:26;;;;;;;10.75;8.00;;;;;;;28.06;46.27;100841.22;5043624;28;20930;-58
2022/09/01 11:17:51;;;;;;;11.33;8.30;;;;;;;28.24;46.37;100834.28;5030470;28;20469;-58
2022/09/01 11:20:24;;;;;;;11.93;8.52;;;;;;;28.36;46.08;100840.16;5030705;28;20849;-58
2022/09/01 11:22:56;;;;;;;10.03;8.00;;;;;;;28.25;46.23;100840.53;5030185;28;20477;-58
2022/09/01 11:25:39;;;;;;;11.93;8.30;;;;;;;28.25;45.90;100837.81;5031426;28;20396;-60
2022/09/01 11:28:14;;;;;;;10.25;7.18;;;;;;;28.15;46.35;100836.00;5009738;28;20411;-58
2022/09/01 11:30:57;;;;;;;9.15;7.63;;;;;;;28.02;46.58;100830.09;5013153;28;20390;-58
2022/09/01 11:33:31;;;;;;;10.87;7.77;;;;;;;27.89;46.70;100835.31;5030524;28;20386;-58
2022/09/01 11:36:18;;;;;;;10.95;8.05;;;;;;;27.83;46.90;100826.38;5030574;28;20884;-58
2022/09/01 11:39:06;;;;;;;9.18;8.18;;;;;;;27.71;46.73;100817.75;5030203;28;20426;-58
2022/09/01 11:41:38;;;;;;;10.20;8.07;;;;;;;27.69;47.18;100811.75;5030506;28;20441;-58
2022/09/01 11:44:14;;;;;;;11.32;8.45;;;;;;;27.78;46.94;100816.31;5029215;28;21046;-58
2022/09/01 11:46:42;;;;;;;8.75;7.50;;;;;;;27.82;46.63;100809.22;5019555;28;20402;-59
2022/09/01 11:49:27;;;;;;;10.07;7.78;;;;;;;28.00;46.49;100806.94;5030024;28;20395;-58
2022/09/01 11:51:53;;;;;;;12.05;8.45;;;;;;;28.02;46.41;100802.03;5029818;28;20836;-58